Roedersville, Pennsylvania
Current Conditions -  °F | °C
As of 3:34 PM on Monday 26 Jan 2015 (Local Time) from KMUI Reporting Station
Overcast Overcast  
Wind Chill: 16°   Ceiling: 2000
Heat Index: 25°   Visibility: 10mi
Dew Point: 19°   Wind: 8mph
Humidity: 80%   Direction: 60°ENE
Pressure: 29.78"   Gusts: NA
Location:  40.5592°N, 76.3347°W
Report Text: KMUI 262034Z AUTO 06007KT 10SM OVC020 M04/M07 A2978 RMK AO2
Loading
Personal Weather Stations






























Interactive Weather Map New forecast layout! Learn more

10-Day Weather Forecast

Advertisements
Track Severe Weather on mobile